createdAt,value
2023-01-06T00:01:33.214Z,9.80
2023-01-06T00:06:45.169Z,9.76
2023-01-06T00:09:12.173Z,9.74
2023-01-06T00:11:39.112Z,9.72
2023-01-06T00:14:12.569Z,9.69
2023-01-06T00:16:39.661Z,9.66
2023-01-06T00:21:51.477Z,9.61
2023-01-06T00:24:18.438Z,9.60
2023-01-06T00:26:45.524Z,9.62
2023-01-06T00:29:12.891Z,9.57
2023-01-06T00:31:39.921Z,9.57
2023-01-06T00:34:11.488Z,9.56
2023-01-06T00:36:40.909Z,9.54
2023-01-06T00:39:13.067Z,9.55
2023-01-06T00:41:59.652Z,9.53
2023-01-06T00:44:26.728Z,9.49
2023-01-06T00:46:57.185Z,9.47
2023-01-06T00:49:24.422Z,9.42
2023-01-06T00:51:51.506Z,9.36
2023-01-06T00:54:18.881Z,9.34
2023-01-06T00:56:49.665Z,9.30
2023-01-06T00:59:21.419Z,9.26
2023-01-06T01:01:51.103Z,9.25
2023-01-06T01:04:19.502Z,9.24
2023-01-06T01:06:47.654Z,9.23
2023-01-06T01:09:18.403Z,9.20
2023-01-06T01:12:04.145Z,9.18
2023-01-06T01:14:31.398Z,9.16
2023-01-06T01:16:58.660Z,9.16
2023-01-06T01:19:27.710Z,9.15
2023-01-06T01:21:54.641Z,9.13
2023-01-06T01:24:22.031Z,9.13
2023-01-06T01:26:50.020Z,9.09
2023-01-06T01:29:19.080Z,9.08
2023-01-06T01:31:47.016Z,9.05
2023-01-06T01:34:16.087Z,9.03
2023-01-06T01:36:44.730Z,9.03
2023-01-06T01:39:13.070Z,9.02
2023-01-06T01:41:40.118Z,8.99
2023-01-06T01:44:44.354Z,8.99
2023-01-06T01:47:47.565Z,8.93
2023-01-06T01:50:22.388Z,8.89
2023-01-06T01:52:52.339Z,8.85
2023-01-06T01:55:19.993Z,8.83
2023-01-06T01:57:49.869Z,8.79
2023-01-06T02:00:18.284Z,8.79
2023-01-06T02:02:45.324Z,8.69
2023-01-06T02:05:16.476Z,8.72
2023-01-06T02:07:43.804Z,8.68
2023-01-06T02:10:20.915Z,8.62
2023-01-06T02:12:53.479Z,8.61
2023-01-06T02:15:25.550Z,8.57
2023-01-06T02:18:10.791Z,8.55
2023-01-06T02:23:43.513Z,8.43
2023-01-06T02:26:29.211Z,8.41
2023-01-06T02:29:16.351Z,8.39
2023-01-06T02:32:15.167Z,8.36
2023-01-06T02:35:31.738Z,8.31
2023-01-06T02:38:28.223Z,8.30
2023-01-06T02:41:04.200Z,8.28
2023-01-06T02:44:00.894Z,8.24
2023-01-06T02:46:33.879Z,8.21
2023-01-06T02:49:30.154Z,8.23
2023-01-06T02:52:24.291Z,8.19
2023-01-06T02:54:59.111Z,8.20
2023-01-06T02:57:42.580Z,8.19
2023-01-06T03:01:05.384Z,8.13
2023-01-06T03:03:37.672Z,8.05
2023-01-06T03:06:18.885Z,8.05
2023-01-06T03:09:08.520Z,7.93
2023-01-06T03:11:43.816Z,7.90
2023-01-06T03:14:26.136Z,7.89
2023-01-06T03:16:54.589Z,7.80
2023-01-06T03:19:23.821Z,7.80
2023-01-06T03:22:11.004Z,7.78
2023-01-06T03:24:39.397Z,7.68
2023-01-06T03:27:07.550Z,7.60
2023-01-06T03:29:36.681Z,7.60
2023-01-06T03:32:19.317Z,7.54
2023-01-06T03:35:05.654Z,7.51
2023-01-06T03:37:36.544Z,7.50
2023-01-06T03:40:41.243Z,7.43
2023-01-06T03:43:40.311Z,7.40
2023-01-06T03:46:12.535Z,7.36
2023-01-06T03:48:59.820Z,7.38
2023-01-06T03:51:48.571Z,7.34
2023-01-06T03:54:46.813Z,7.30
2023-01-06T03:57:23.344Z,7.30
2023-01-06T04:00:11.234Z,7.31
2023-01-06T04:02:46.675Z,7.27
2023-01-06T04:05:23.501Z,7.30
2023-01-06T04:07:51.726Z,7.28
2023-01-06T04:10:21.774Z,7.24
2023-01-06T04:12:51.873Z,7.26
2023-01-06T04:15:26.154Z,7.22
2023-01-06T04:18:14.290Z,7.23
2023-01-06T04:20:42.873Z,7.21
2023-01-06T04:23:20.842Z,7.21
2023-01-06T04:25:47.761Z,7.16
2023-01-06T04:28:19.580Z,7.14
2023-01-06T04:30:49.630Z,7.16
2023-01-06T04:33:16.559Z,7.10
2023-01-06T04:35:45.744Z,7.07
2023-01-06T04:38:14.941Z,7.06
2023-01-06T04:40:44.881Z,7.11
2023-01-06T04:43:16.596Z,7.10
2023-01-06T04:45:44.377Z,7.08
2023-01-06T04:48:11.993Z,7.08
2023-01-06T04:50:39.442Z,7.11
2023-01-06T04:53:07.250Z,7.10
2023-01-06T04:55:38.623Z,7.14
2023-01-06T04:58:05.855Z,7.13
2023-01-06T05:00:32.945Z,7.15
2023-01-06T05:03:00.052Z,7.16
2023-01-06T05:05:27.093Z,7.15
2023-01-06T05:07:54.843Z,7.14
2023-01-06T05:10:22.096Z,7.10
2023-01-06T05:12:49.045Z,7.10
2023-01-06T05:15:34.354Z,7.07
2023-01-06T05:18:01.334Z,7.02
2023-01-06T05:20:47.026Z,7.03
2023-01-06T05:23:33.329Z,7.05
2023-01-06T05:26:00.346Z,7.03
2023-01-06T05:28:46.027Z,6.99
2023-01-06T05:31:13.159Z,6.96
2023-01-06T05:33:40.608Z,6.96
2023-01-06T05:36:13.735Z,6.95
2023-01-06T05:38:40.917Z,6.94
2023-01-06T05:41:08.213Z,6.93
2023-01-06T05:43:37.094Z,6.91
2023-01-06T05:46:08.990Z,6.92
2023-01-06T05:48:36.860Z,6.90
2023-01-06T05:51:06.558Z,6.85
2023-01-06T05:53:35.357Z,6.82
2023-01-06T05:56:04.253Z,6.80
2023-01-06T05:58:33.571Z,6.78
2023-01-06T06:01:01.611Z,6.78
2023-01-06T06:03:28.583Z,6.70
2023-01-06T06:05:55.533Z,6.70
2023-01-06T06:08:22.432Z,6.62
2023-01-06T06:10:49.325Z,6.45
2023-01-06T06:13:16.270Z,6.46
2023-01-06T06:15:43.184Z,6.44
2023-01-06T06:18:10.111Z,6.38
2023-01-06T06:20:37.099Z,6.29
2023-01-06T06:23:04.109Z,6.19
2023-01-06T06:25:31.210Z,6.16
2023-01-06T06:27:59.475Z,6.09
2023-01-06T06:30:26.577Z,6.00
2023-01-06T06:32:53.493Z,5.96
2023-01-06T06:35:20.499Z,5.89
2023-01-06T06:37:47.370Z,5.88
2023-01-06T06:40:14.473Z,5.91
2023-01-06T06:42:41.373Z,5.86
2023-01-06T06:45:08.770Z,5.84
2023-01-06T06:50:20.148Z,5.80
2023-01-06T06:52:47.016Z,5.85
2023-01-06T06:55:13.967Z,5.85
2023-01-06T06:57:40.823Z,5.82
2023-01-06T07:00:08.579Z,5.85
2023-01-06T07:02:35.517Z,5.85
2023-01-06T07:05:03.125Z,5.83
2023-01-06T07:07:30.037Z,5.81
2023-01-06T07:09:56.964Z,5.86
2023-01-06T07:12:23.960Z,5.85
2023-01-06T07:14:50.855Z,5.86
2023-01-06T07:17:17.783Z,5.89
2023-01-06T07:19:44.723Z,5.92
2023-01-06T07:22:11.644Z,5.93
2023-01-06T07:24:38.838Z,5.91
2023-01-06T07:27:06.844Z,5.92
2023-01-06T07:29:33.759Z,5.94
2023-01-06T07:32:00.995Z,6.02
2023-01-06T07:34:27.962Z,6.35
2023-01-06T07:37:13.511Z,6.69
2023-01-06T07:39:43.031Z,6.97
2023-01-06T07:42:10.803Z,7.45
2023-01-06T07:47:25.762Z,8.45
2023-01-06T07:49:52.618Z,8.64
2023-01-06T07:52:23.806Z,8.91
2023-01-06T07:54:50.738Z,9.51
2023-01-06T07:57:18.177Z,9.92
2023-01-06T07:59:49.821Z,10.52
2023-01-06T08:02:19.265Z,10.77
2023-01-06T08:04:47.173Z,11.15
2023-01-06T08:07:15.525Z,11.37
2023-01-06T08:09:44.846Z,11.86
2023-01-06T08:12:13.982Z,12.20
2023-01-06T08:14:40.951Z,12.56
2023-01-06T08:17:07.859Z,12.84
2023-01-06T08:19:53.319Z,13.02
2023-01-06T08:22:20.624Z,13.45
2023-01-06T08:24:47.497Z,13.48
2023-01-06T08:29:58.609Z,14.20
2023-01-06T08:32:25.587Z,14.65
2023-01-06T08:35:11.308Z,15.02
2023-01-06T08:37:38.349Z,15.13
2023-01-06T08:40:06.015Z,15.65
2023-01-06T08:42:35.241Z,15.56
2023-01-06T08:45:02.191Z,16.13
2023-01-06T08:47:29.303Z,16.12
2023-01-06T08:49:56.219Z,16.72
2023-01-06T08:52:23.132Z,17.14
2023-01-06T08:54:50.005Z,17.34
2023-01-06T08:57:17.594Z,17.20
2023-01-06T08:59:44.615Z,17.78
2023-01-06T09:02:11.843Z,17.78
2023-01-06T09:04:39.159Z,18.16
2023-01-06T09:07:06.274Z,18.67
2023-01-06T09:09:33.721Z,18.43
2023-01-06T09:12:03.321Z,18.89
2023-01-06T09:14:33.141Z,18.98
2023-01-06T09:17:00.025Z,19.09
2023-01-06T09:19:26.895Z,19.51
2023-01-06T09:21:53.793Z,19.90
2023-01-06T09:24:20.866Z,20.24
2023-01-06T09:26:47.720Z,20.45
2023-01-06T09:29:14.902Z,20.63
2023-01-06T09:31:47.970Z,20.85
2023-01-06T09:34:15.119Z,21.13
2023-01-06T09:36:42.266Z,21.26
2023-01-06T09:39:27.752Z,20.97
2023-01-06T09:42:25.234Z,21.77
2023-01-06T09:45:01.262Z,22.06
2023-01-06T09:47:40.213Z,22.54
2023-01-06T09:50:22.528Z,22.71
2023-01-06T09:52:55.354Z,23.42
2023-01-06T09:55:57.613Z,23.83
2023-01-06T09:58:39.961Z,23.94
2023-01-06T10:01:13.661Z,24.68
2023-01-06T10:03:48.761Z,25.19
2023-01-06T10:07:07.263Z,25.16
2023-01-06T10:09:43.237Z,24.91
2023-01-06T10:12:37.352Z,24.98
2023-01-06T10:15:15.973Z,24.94
2023-01-06T10:18:14.972Z,25.12
2023-01-06T10:20:55.835Z,25.17
2023-01-06T10:23:25.601Z,25.74
2023-01-06T10:26:01.794Z,26.17
2023-01-06T10:28:36.475Z,26.53
2023-01-06T10:31:08.673Z,26.88
2023-01-06T10:33:43.526Z,26.96
2023-01-06T10:36:16.060Z,26.83
2023-01-06T10:38:46.877Z,27.09
2023-01-06T10:41:28.540Z,26.83
2023-01-06T10:43:56.672Z,26.79
2023-01-06T10:46:29.100Z,26.20
2023-01-06T10:48:56.135Z,26.88
2023-01-06T10:51:45.701Z,27.16
2023-01-06T10:57:06.510Z,27.74
2023-01-06T10:59:33.411Z,27.85
2023-01-06T11:02:00.632Z,28.06
2023-01-06T11:04:28.843Z,28.08
2023-01-06T11:07:03.919Z,27.86
2023-01-06T11:09:36.960Z,27.18
2023-01-06T11:12:12.069Z,26.66
2023-01-06T11:14:40.199Z,26.65
2023-01-06T11:17:14.793Z,26.40
2023-01-06T11:19:44.390Z,26.44
2023-01-06T11:22:47.074Z,25.97
2023-01-06T11:25:20.073Z,25.90
2023-01-06T11:27:48.593Z,26.05
2023-01-06T11:30:26.198Z,25.98
2023-01-06T11:32:53.825Z,25.91
2023-01-06T11:35:24.884Z,25.93
2023-01-06T11:37:59.052Z,25.84
2023-01-06T11:40:32.728Z,25.77
2023-01-06T11:43:10.417Z,25.58
2023-01-06T11:45:45.551Z,25.35
2023-01-06T11:48:27.425Z,25.15
2023-01-06T11:50:57.436Z,25.15
2023-01-06T11:53:24.835Z,25.02
2023-01-06T11:56:23.223Z,25.18
2023-01-06T11:58:56.185Z,24.91
2023-01-06T12:01:48.547Z,25.01
2023-01-06T12:04:30.282Z,24.96
2023-01-06T12:07:09.512Z,24.98
2023-01-06T12:09:41.732Z,25.54
2023-01-06T12:12:13.446Z,27.17
2023-01-06T12:14:40.494Z,28.71
2023-01-06T12:17:30.081Z,29.70
2023-01-06T12:20:03.024Z,31.40
2023-01-06T12:22:45.012Z,31.75
2023-01-06T12:25:23.360Z,29.26
2023-01-06T12:28:15.752Z,27.50
2023-01-06T12:30:54.984Z,27.17
2023-01-06T12:33:44.436Z,27.13
2023-01-06T12:36:19.986Z,30.59
2023-01-06T12:38:56.423Z,32.83
2023-01-06T12:41:41.718Z,34.20
2023-01-06T12:44:39.502Z,35.72
2023-01-06T12:47:17.034Z,35.93
2023-01-06T12:49:54.816Z,35.78
2023-01-06T12:52:36.716Z,35.13
2023-01-06T12:55:22.973Z,32.74
2023-01-06T12:57:59.361Z,29.45
2023-01-06T13:00:38.465Z,28.83
2023-01-06T13:03:20.579Z,27.66
2023-01-06T13:06:00.839Z,28.79
2023-01-06T13:09:16.327Z,32.97
2023-01-06T13:12:02.429Z,34.74
2023-01-06T13:14:39.921Z,35.31
2023-01-06T13:17:18.687Z,35.14
2023-01-06T13:19:54.119Z,35.68
2023-01-06T13:22:36.442Z,30.85
2023-01-06T13:28:08.548Z,27.18
2023-01-06T13:31:03.648Z,29.66
2023-01-06T13:34:02.924Z,27.55
2023-01-06T13:36:48.090Z,27.15
2023-01-06T13:39:32.558Z,25.39
2023-01-06T13:42:04.281Z,24.08
2023-01-06T13:44:35.612Z,24.02
2023-01-06T13:47:16.615Z,26.93
2023-01-06T13:49:45.087Z,31.24
2023-01-06T13:52:39.663Z,32.60
2023-01-06T13:55:26.428Z,28.19
2023-01-06T13:57:53.405Z,25.67
2023-01-06T14:00:34.386Z,26.90
2023-01-06T14:03:33.125Z,29.12
2023-01-06T14:06:01.757Z,25.24
2023-01-06T14:08:40.519Z,23.45
2023-01-06T14:11:31.931Z,22.92
2023-01-06T14:14:03.355Z,25.02
2023-01-06T14:16:46.559Z,23.36
2023-01-06T14:19:32.521Z,22.50
2023-01-06T14:22:40.113Z,22.87
2023-01-06T14:25:09.047Z,21.92
2023-01-06T14:27:47.849Z,25.99
2023-01-06T14:30:25.505Z,30.05
2023-01-06T14:32:52.436Z,31.95
2023-01-06T14:35:35.707Z,33.45
2023-01-06T14:38:27.472Z,35.40
2023-01-06T14:41:07.062Z,33.69
2023-01-06T14:43:34.146Z,28.34
2023-01-06T14:46:30.380Z,27.93
2023-01-06T14:49:05.520Z,32.24
2023-01-06T14:51:34.629Z,31.77
2023-01-06T14:54:14.928Z,27.19
2023-01-06T14:57:00.190Z,23.88
2023-01-06T14:59:45.971Z,22.54
2023-01-06T15:02:16.723Z,21.34
2023-01-06T15:04:44.565Z,20.56
2023-01-06T15:07:36.871Z,19.65
2023-01-06T15:10:21.913Z,19.03
2023-01-06T15:12:56.704Z,18.47
2023-01-06T15:15:31.334Z,17.93
2023-01-06T15:18:01.981Z,17.82
2023-01-06T15:20:35.993Z,17.41
2023-01-06T15:23:03.335Z,17.09
2023-01-06T15:25:32.218Z,16.87
2023-01-06T15:27:59.272Z,16.56
2023-01-06T15:30:34.856Z,16.43
2023-01-06T15:33:03.680Z,16.32
2023-01-06T15:35:33.049Z,16.14
2023-01-06T15:38:15.961Z,15.94
2023-01-06T15:40:43.031Z,15.68
2023-01-06T15:43:10.168Z,15.54
2023-01-06T15:45:37.490Z,15.36
2023-01-06T15:48:12.711Z,15.37
2023-01-06T15:50:40.005Z,15.27
2023-01-06T15:53:18.213Z,15.17
2023-01-06T15:55:50.377Z,15.11
2023-01-06T15:58:27.907Z,15.02
2023-01-06T16:01:19.871Z,14.89
2023-01-06T16:04:05.976Z,14.86
2023-01-06T16:06:40.902Z,14.75
2023-01-06T16:09:17.900Z,14.66
2023-01-06T16:14:47.067Z,14.43
2023-01-06T16:17:17.057Z,14.37
2023-01-06T16:19:50.045Z,14.35
2023-01-06T16:22:30.070Z,14.32
2023-01-06T16:25:00.247Z,14.25
2023-01-06T16:27:28.135Z,14.17
2023-01-06T16:30:31.061Z,14.13
2023-01-06T16:33:17.488Z,14.06
2023-01-06T16:35:44.667Z,13.99
2023-01-06T16:38:12.298Z,13.94
2023-01-06T16:40:39.601Z,13.88
2023-01-06T16:43:26.879Z,13.84
2023-01-06T16:46:00.697Z,13.80
2023-01-06T16:48:30.013Z,13.75
2023-01-06T16:50:58.635Z,13.72
2023-01-06T16:53:27.851Z,13.68
2023-01-06T16:55:56.751Z,13.65
2023-01-06T16:58:28.511Z,13.62
2023-01-06T17:00:58.643Z,13.57
2023-01-06T17:03:30.652Z,13.54
2023-01-06T17:05:58.152Z,13.52
2023-01-06T17:11:25.430Z,13.48
2023-01-06T17:13:59.933Z,13.45
2023-01-06T17:16:31.358Z,13.41
2023-01-06T17:19:16.281Z,13.37
2023-01-06T17:21:43.199Z,13.32
2023-01-06T17:24:23.521Z,13.26
2023-01-06T17:27:00.114Z,13.23
2023-01-06T17:29:30.372Z,13.22
2023-01-06T17:32:00.894Z,13.21
2023-01-06T17:34:36.280Z,13.18
2023-01-06T17:37:18.434Z,13.19
2023-01-06T17:39:47.186Z,13.16
2023-01-06T17:42:14.119Z,13.14
2023-01-06T17:44:48.523Z,13.13
2023-01-06T17:47:16.127Z,13.10
2023-01-06T17:50:23.392Z,13.07
2023-01-06T17:53:12.455Z,13.03
2023-01-06T17:55:49.406Z,12.98
2023-01-06T17:58:42.731Z,12.93
2023-01-06T18:01:45.840Z,12.89
2023-01-06T18:04:37.848Z,12.87
2023-01-06T18:07:11.364Z,12.86
2023-01-06T18:09:39.462Z,12.85
2023-01-06T18:12:16.030Z,12.83
2023-01-06T18:14:45.789Z,12.78
2023-01-06T18:17:30.197Z,12.76
2023-01-06T18:19:57.346Z,12.70
2023-01-06T18:22:29.391Z,12.67
2023-01-06T18:25:00.420Z,12.64
2023-01-06T18:27:33.526Z,12.62
2023-01-06T18:30:21.847Z,12.59
2023-01-06T18:32:50.606Z,12.55
2023-01-06T18:35:42.885Z,12.52
2023-01-06T18:38:10.169Z,12.49
2023-01-06T18:40:39.073Z,12.48
2023-01-06T18:43:30.211Z,12.44
2023-01-06T18:46:02.400Z,12.41
2023-01-06T18:48:51.467Z,12.39
2023-01-06T18:51:39.970Z,12.34
2023-01-06T18:54:22.233Z,12.29
2023-01-06T18:56:56.401Z,12.25
2023-01-06T19:00:05.536Z,12.22
2023-01-06T19:02:33.528Z,12.15
2023-01-06T19:05:23.286Z,12.10
2023-01-06T19:08:35.528Z,12.05
2023-01-06T19:11:04.702Z,11.99
2023-01-06T19:16:38.875Z,11.84
2023-01-06T19:19:16.278Z,11.80
2023-01-06T19:21:44.084Z,11.74
2023-01-06T19:24:29.553Z,11.69
2023-01-06T19:26:58.901Z,11.64
2023-01-06T19:29:35.534Z,11.57
2023-01-06T19:34:58.560Z,11.45
2023-01-06T19:37:26.601Z,11.40
2023-01-06T19:39:58.340Z,11.38
2023-01-06T19:42:32.346Z,11.32
2023-01-06T19:45:09.623Z,11.27
2023-01-06T19:47:42.165Z,11.23
2023-01-06T19:50:22.435Z,11.19
2023-01-06T19:52:57.500Z,11.12
2023-01-06T19:55:31.110Z,11.08
2023-01-06T19:58:00.862Z,11.06
2023-01-06T20:00:28.030Z,11.04
2023-01-06T20:03:02.045Z,11.00
2023-01-06T20:05:31.750Z,10.97
2023-01-06T20:08:02.576Z,10.92
2023-01-06T20:10:29.759Z,10.89
2023-01-06T20:12:56.749Z,10.84
2023-01-06T20:15:23.791Z,10.84
2023-01-06T20:17:50.850Z,10.78
2023-01-06T20:20:18.203Z,10.75
2023-01-06T20:22:45.521Z,10.71
2023-01-06T20:25:12.668Z,10.71
2023-01-06T20:27:40.184Z,10.63
2023-01-06T20:30:07.981Z,10.61
2023-01-06T20:32:35.064Z,10.54
2023-01-06T20:35:03.062Z,10.50
2023-01-06T20:37:30.086Z,10.47
2023-01-06T20:39:57.119Z,10.43
2023-01-06T20:42:24.072Z,10.41
2023-01-06T20:44:52.290Z,10.38
2023-01-06T20:47:37.616Z,10.33
2023-01-06T20:50:24.261Z,10.34
2023-01-06T20:52:51.297Z,10.28
2023-01-06T20:55:31.033Z,10.27
2023-01-06T20:57:57.986Z,10.22
2023-01-06T21:00:24.892Z,10.24
2023-01-06T21:02:51.856Z,10.18
2023-01-06T21:05:21.109Z,10.17
2023-01-06T21:07:48.378Z,10.14
2023-01-06T21:10:15.429Z,10.06
2023-01-06T21:12:43.241Z,10.02
2023-01-06T21:15:11.994Z,9.94
2023-01-06T21:17:39.455Z,9.92
2023-01-06T21:20:07.585Z,9.88
2023-01-06T21:22:35.212Z,9.88
2023-01-06T21:27:47.227Z,9.79
2023-01-06T21:30:14.843Z,9.77
2023-01-06T21:33:00.656Z,9.72
2023-01-06T21:35:27.641Z,9.75
2023-01-06T21:37:54.624Z,9.70
2023-01-06T21:40:22.101Z,9.73
2023-01-06T21:43:07.538Z,9.65
2023-01-06T21:45:43.094Z,9.60
2023-01-06T21:48:12.084Z,9.63
2023-01-06T21:50:42.423Z,9.57
2023-01-06T21:53:11.121Z,9.58
2023-01-06T21:55:38.556Z,9.54
2023-01-06T21:58:05.659Z,9.53
2023-01-06T22:00:35.549Z,9.49
2023-01-06T22:03:02.697Z,9.48
2023-01-06T22:05:29.815Z,9.43
2023-01-06T22:07:56.888Z,9.41
2023-01-06T22:10:48.335Z,9.35
2023-01-06T22:13:29.308Z,9.33
2023-01-06T22:15:57.292Z,9.27
2023-01-06T22:18:24.516Z,9.21
2023-01-06T22:20:52.009Z,9.15
2023-01-06T22:23:21.165Z,9.15
2023-01-06T22:25:48.325Z,9.07
2023-01-06T22:28:15.260Z,8.97
2023-01-06T22:30:44.716Z,8.95
2023-01-06T22:33:30.088Z,8.95
2023-01-06T22:35:58.117Z,8.84
2023-01-06T22:38:25.579Z,8.78
2023-01-06T22:40:52.822Z,8.75
2023-01-06T22:43:19.825Z,8.71
2023-01-06T22:45:57.802Z,8.74
2023-01-06T22:48:27.945Z,8.69
2023-01-06T22:51:05.979Z,8.67
2023-01-06T22:53:34.578Z,8.64
2023-01-06T22:56:21.679Z,8.58
2023-01-06T22:58:48.624Z,8.53
2023-01-06T23:01:17.860Z,8.47
2023-01-06T23:03:45.114Z,8.49
2023-01-06T23:06:14.269Z,8.47
2023-01-06T23:08:58.412Z,8.47
2023-01-06T23:11:31.482Z,8.42
2023-01-06T23:13:59.086Z,8.41
2023-01-06T23:16:29.064Z,8.37
2023-01-06T23:18:56.088Z,8.28
2023-01-06T23:21:25.402Z,8.32
2023-01-06T23:23:53.870Z,8.27
2023-01-06T23:26:26.365Z,8.26
2023-01-06T23:28:54.240Z,8.28
2023-01-06T23:31:24.936Z,8.34
2023-01-06T23:33:57.252Z,8.34
2023-01-06T23:36:27.240Z,8.33
2023-01-06T23:41:40.824Z,8.26
2023-01-06T23:44:10.332Z,8.30
2023-01-06T23:46:39.963Z,8.30
2023-01-06T23:49:20.550Z,8.32
2023-01-06T23:51:47.607Z,8.29
2023-01-06T23:54:15.231Z,8.29
2023-01-06T23:56:42.155Z,8.30
2023-01-06T23:59:11.594Z,8.29
